Time;durP1;ratioP1;P1;durP2;ratioP2;P2;SDS_P1;SDS_P2;PMS_P1;PMS_P2;Temp;Humidity;BMP_temperature;BMP_pressure;BME280_temperature;BME280_humidity;BME280_pressure;Samples;Min_cycle;Max_cycle;Signal;HPM_P1;HPM_P2
2023/03/10 00:05:06;;;;;;;3.15;1.10;;;;;;;;;;6244414;23;20022;-83
2023/03/10 00:08:29;;;;;;;2.15;1.48;;;10.80;99.90;;;;;;6218965;23;19996;-82
2023/03/10 00:11:18;;;;;;;2.03;0.90;;;;;;;;;;6177414;23;20025;-81
2023/03/10 00:13:54;;;;;;;2.65;1.35;;;;;;;;;;6152585;23;20016;-82
2023/03/10 00:19:27;;;;;;;2.00;0.93;;;;;;;;;;6180882;23;20524;-82
2023/03/10 00:25:00;;;;;;;1.63;0.80;;;;;;;;;;6179811;23;20021;-84
2023/03/10 00:28:25;;;;;;;2.28;1.10;;;10.80;99.90;;;;;;6129687;23;20025;-82
2023/03/10 00:37:22;;;;;;;7.18;2.35;;;;;;;;;;6176482;23;20001;-82
2023/03/10 00:39:52;;;;;;;2.83;1.00;;;;;;;;;;6153836;23;20050;-81
2023/03/10 00:42:23;;;;;;;3.70;1.00;;;10.70;99.90;;;;;;6262338;22;19992;-82
2023/03/10 00:45:15;;;;;;;0.65;0.50;;;;;;;;;;6243824;23;20000;-81
2023/03/10 00:48:18;;;;;;;1.95;0.68;;;;;;;;;;6266358;23;20068;-82
2023/03/10 01:04:23;;;;;;;2.72;1.30;;;;;;;;;;6274858;22;20019;-81
2023/03/10 01:07:53;;;;;;;5.63;1.38;;;10.60;99.90;;;;;;6269166;23;20016;-82
2023/03/10 01:13:42;;;;;;;4.20;1.20;;;;;;;;;;6240323;23;20059;-82
2023/03/10 01:22:44;;;;;;;2.75;1.00;;;10.60;99.90;;;;;;6272959;23;20015;-83
2023/03/10 01:25:17;;;;;;;3.15;1.10;;;;;;;;;;6246441;23;20004;-80
2023/03/10 01:28:03;;;;;;;1.58;0.85;;;;;;;;;;6271567;23;20008;-82
2023/03/10 01:30:40;;;;;;;5.07;1.38;;;;;;;;;;6247101;23;20004;-81
2023/03/10 01:33:26;;;;;;;2.22;0.90;;;;;;;;;;6268772;23;19996;-82
2023/03/10 01:36:31;;;;;;;2.92;1.10;;;10.50;99.90;;;;;;6246304;23;20075;-83
2023/03/10 01:39:23;;;;;;;2.78;1.25;;;;;;;;;;6270676;22;19992;-83
2023/03/10 01:48:56;;;;;;;3.22;1.08;;;;;;;;;;6271752;22;20022;-81
2023/03/10 01:51:48;;;;;;;3.10;1.17;;;;;;;;;;6261511;23;20004;-82
2023/03/10 01:54:33;;;;;;;2.83;1.17;;;;;;;;;;6268821;23;19997;-82
2023/03/10 01:57:32;;;;;;;4.65;1.40;;;10.30;99.90;;;;;;6270560;23;19980;-83
2023/03/10 02:07:00;;;;;;;3.47;1.98;;;;;;;;;;6274191;22;20020;-80
2023/03/10 02:12:58;;;;;;;4.93;2.28;;;;;;;;;;6194371;23;20011;-81
2023/03/10 02:15:41;;;;;;;3.38;2.00;;;10.40;99.90;;;;;;6247878;23;20011;-81
2023/03/10 02:18:39;;;;;;;7.18;2.33;;;10.40;99.90;;;;;;6240148;23;20008;-81
2023/03/10 02:27:57;;;;;;;6.00;2.90;;;;;;;;;;6151068;23;20041;-83
2023/03/10 02:31:13;;;;;;;3.42;1.45;;;10.30;99.90;;;;;;6244801;23;20003;-82
2023/03/10 02:34:20;;;;;;;3.35;1.50;;;;;;;;;;6270604;23;20028;-82
2023/03/10 02:37:43;;;;;;;2.58;1.48;;;10.20;99.90;;;;;;6245235;23;19993;-82
2023/03/10 02:40:32;;;;;;;5.20;1.73;;;10.20;99.90;;;;;;6270498;23;19984;-82
2023/03/10 02:48:36;;;;;;;2.83;1.27;;;;;;;;;;6299364;22;20011;-81
2023/03/10 02:51:16;;;;;;;7.55;1.40;;;;;;;;;;6293872;22;20023;-81
2023/03/10 02:53:50;;;;;;;7.15;1.33;;;;;;;;;;6269381;23;20034;-81
2023/03/10 02:56:16;;;;;;;7.32;1.77;;;;;;;;;;6266659;23;20027;-81
2023/03/10 02:58:45;;;;;;;5.68;1.50;;;;;;;;;;6295622;22;20008;-82
2023/03/10 03:01:18;;;;;;;3.33;1.10;;;;;;;;;;6271054;22;20000;-80
2023/03/10 03:03:49;;;;;;;8.43;1.70;;;;;;;;;;6269895;23;20000;-82
2023/03/10 03:06:21;;;;;;;10.60;2.25;;;;;;;;;;6267006;23;20048;-82
2023/03/10 03:08:56;;;;;;;5.97;1.73;;;;;;;;;;6270343;23;20016;-82
2023/03/10 03:11:23;;;;;;;7.35;1.42;;;10.30;99.90;;;;;;6268083;22;20012;-82
2023/03/10 03:20:41;;;;;;;5.00;1.45;;;;;;;;;;6268127;22;20016;-81
2023/03/10 03:23:12;;;;;;;5.95;1.75;;;10.20;99.90;;;;;;6270439;23;20000;-80
2023/03/10 03:25:58;;;;;;;7.32;1.50;;;;;;;;;;6267855;22;19984;-82
2023/03/10 03:28:47;;;;;;;8.55;1.73;;;;;;;;;;6270569;22;20014;-81
2023/03/10 03:38:19;;;;;;;5.65;1.55;;;10.10;99.90;;;;;;6210714;23;19996;-83
2023/03/10 03:41:09;;;;;;;3.92;1.40;;;;;;;;;;6133276;23;20017;-82
2023/03/10 03:43:55;;;;;;;3.40;1.57;;;;;;;;;;6253708;22;20012;-83
2023/03/10 03:46:47;;;;;;;3.30;1.70;;;;;;;;;;6271682;22;20211;-82
2023/03/10 03:49:14;;;;;;;4.28;1.70;;;;;;;;;;6243631;22;20219;-82
2023/03/10 03:51:41;;;;;;;5.18;1.85;;;;;;;;;;6212109;22;20047;-82
2023/03/10 03:54:32;;;;;;;7.28;2.10;;;;;;;;;;6119950;23;20058;-83
2023/03/10 03:56:59;;;;;;;5.43;1.70;;;;;;;;;;6148708;23;20016;-81
2023/03/10 03:59:28;;;;;;;7.43;2.22;;;;;;;;;;6214916;23;20004;-83
2023/03/10 04:01:55;;;;;;;5.20;1.63;;;;;;;;;;6210567;23;19989;-81
2023/03/10 04:04:42;;;;;;;7.57;2.30;;;;;;;;;;6190917;23;20032;-83
2023/03/10 04:07:15;;;;;;;4.70;1.90;;;;;;;;;;6215186;23;20007;-80
2023/03/10 04:09:42;;;;;;;6.15;1.63;;;;;;;;;;6185520;23;20030;-81
2023/03/10 04:12:32;;;;;;;7.00;1.80;;;;;;;;;;6213163;23;20012;-80
2023/03/10 04:14:59;;;;;;;10.07;2.10;;;;;;;;;;6239335;22;19989;-82
2023/03/10 04:18:02;;;;;;;5.93;1.65;;;;;;;;;;6205392;23;20011;-82
2023/03/10 04:20:32;;;;;;;12.65;2.30;;;;;;;;;;6239796;23;20014;-82
2023/03/10 04:29:59;;;;;;;5.13;1.30;;;;;;;;;;6241519;23;20007;-82
2023/03/10 04:32:54;;;;;;;3.53;1.30;;;;;;;;;;6237081;23;20009;-82
2023/03/10 12:15:10;;;;;;;4.80;1.75;;;;;;;;;;6256805;23;20459;-81
2023/03/10 12:17:45;;;;;;;;;;;9.90;99.90;;;;;;6257471;23;20008;-80
2023/03/10 12:20:36;;;;;;;1.92;0.90;;;;;;;;;;6260207;23;19906;-81
2023/03/10 12:23:10;;;;;;;1.52;0.80;;;;;;;;;;6259542;23;20008;-81
2023/03/10 12:25:39;;;;;;;2.20;1.00;;;;;;;;;;6256932;23;20004;-81
2023/03/10 12:28:50;;;;;;;1.05;0.85;;;;;;;;;;6222969;23;20008;-81
2023/03/10 12:31:39;;;;;;;1.50;1.02;;;;;;;;;;6256818;23;20015;-81
2023/03/10 12:34:25;;;;;;;1.20;0.80;;;;;;;;;;6257745;23;20004;-82
2023/03/10 12:36:57;;;;;;;1.35;0.60;;;;;;;;;;6258222;23;20001;-80
2023/03/10 12:39:45;;;;;;;0.80;0.63;;;;;;;;;;6256579;23;20058;-81
2023/03/10 12:42:40;;;;;;;0.90;0.80;;;;;;;;;;6255192;23;20064;-81
2023/03/10 12:45:45;;;;;;;0.95;0.52;;;;;;;;;;6233778;23;20011;-81
2023/03/10 12:48:21;;;;;;;1.42;0.60;;;;;;;;;;6137111;23;20026;-80
2023/03/10 12:50:53;;;;;;;2.72;0.70;;;;;;;;;;6219276;23;20001;-80
2023/03/10 12:53:56;;;;;;;0.50;0.50;;;;;;;;;;6258018;23;20000;-81
2023/03/10 12:56:36;;;;;;;1.42;0.63;;;;;;;;;;6136106;23;20010;-82
2023/03/10 12:59:07;;;;;;;;;;;10.20;99.90;;;;;;6216782;23;20035;-81
2023/03/10 13:01:39;;;;;;;2.47;0.93;;;;;;;;;;6233006;23;19904;-82
2023/03/10 13:04:08;;;;;;;2.35;1.20;;;;;;;;;;6234620;23;20000;-81
2023/03/10 13:06:47;;;;;;;2.35;1.30;;;;;;;;;;6255153;23;20008;-81
2023/03/10 13:09:32;;;;;;;1.17;0.80;;;;;;;;;;6233444;23;20074;-81
2023/03/10 13:12:10;;;;;;;0.30;0.30;;;;;;;;;;6255255;23;20011;-81
2023/03/10 13:14:42;;;;;;;2.20;0.90;;;;;;;;;;6253849;22;20019;-81
2023/03/10 13:17:20;;;;;;;1.70;0.60;;;;;;;;;;6255311;23;20011;-81
2023/03/10 13:19:57;;;;;;;0.60;0.50;;;;;;;;;;6254897;23;20075;-81
2023/03/10 13:22:48;;;;;;;2.03;0.73;;;;;;;;;;6229102;23;20030;-81
2023/03/10 13:25:21;;;;;;;1.52;0.82;;;;;;;;;;6255743;22;20083;-82
2023/03/10 13:28:09;;;;;;;1.98;1.00;;;10.00;99.90;;;;;;6233417;23;20052;-82
2023/03/10 13:30:38;;;;;;;1.75;0.60;;;;;;;;;;6231072;23;20027;-83
2023/03/10 13:33:22;;;;;;;1.17;0.60;;;;;;;;;;6258507;23;20000;-80
2023/03/10 13:35:58;;;;;;;6.20;1.73;;;;;;;;;;6256336;22;20012;-82
2023/03/10 13:38:25;;;;;;;2.85;1.13;;;;;;;;;;6255892;23;20011;-81
2023/03/10 13:45:04;;;;;;;0.75;0.65;;;9.90;99.90;;;;;;6261216;23;19995;-80
2023/03/10 13:48:03;;;;;;;1.95;0.80;;;;;;;;;;6174040;23;20032;-82
2023/03/10 13:50:59;;;;;;;2.22;0.60;;;;;;;;;;6178289;23;20147;-81
2023/03/10 13:53:51;;;;;;;1.15;0.60;;;;;;;;;;6167229;23;20021;-81
2023/03/10 13:56:48;;;;;;;1.98;0.80;;;;;;;;;;6170923;23;19996;-82
2023/03/10 13:59:36;;;;;;;0.70;0.57;;;;;;;;;;6157154;23;20009;-82
2023/03/10 14:02:43;;;;;;;1.90;0.95;;;;;;;;;;6169787;23;20008;-81
2023/03/10 14:05:53;;;;;;;;;;;9.60;99.90;;;;;;6088056;23;20022;-80
2023/03/10 14:09:00;;;;;;;3.72;0.85;;;9.70;99.90;;;;;;6190929;23;19904;-82
2023/03/10 14:12:08;;;;;;;1.50;0.80;;;;;;;;;;6206772;23;20023;-80
2023/03/10 14:15:39;;;;;;;3.13;1.05;;;9.70;99.90;;;;;;6198036;23;20009;-81
2023/03/10 14:18:48;;;;;;;3.53;1.43;;;;;;;;;;6134575;23;20068;-82
2023/03/10 14:21:23;;;;;;;1.20;0.50;;;;;;;;;;6196252;23;20056;-80
2023/03/10 14:24:10;;;;;;;2.63;0.80;;;;;;;;;;6191049;23;20088;-80
2023/03/10 14:26:47;;;;;;;6.05;1.23;;;;;;;;;;6191312;23;20084;-81
2023/03/10 14:32:42;;;;;;;3.20;1.25;;;;;;;;;;6192886;23;20024;-81
2023/03/10 14:39:03;;;;;;;2.92;1.15;;;;;;;;;;6192961;23;20089;-81
2023/03/10 14:42:09;;;;;;;2.60;1.00;;;;;;;;;;6193103;23;20032;-81
2023/03/10 14:59:22;;;;;;;3.63;1.25;;;9.50;99.90;;;;;;6102830;23;20505;-80
2023/03/10 15:10:22;;;;;;;4.95;1.80;;;;;;;;;;6247907;22;20442;-81
2023/03/10 15:33:22;;;;;;;10.40;3.22;;;;;;;;;;6166574;23;20048;-81
2023/03/10 16:31:01;;;;;;;5.20;1.40;;;;;;;;;;6172919;23;20045;-81
2023/03/10 16:37:43;;;;;;;1.50;1.13;;;7.80;99.90;;;;;;6182468;23;20023;-81
2023/03/10 16:50:22;;;;;;;1.63;0.80;;;7.90;99.90;;;;;;6267115;23;20067;-81
2023/03/10 19:34:55;;;;;;;3.72;1.60;;;;;;;;;;5111801;27;21024;-83
2023/03/10 19:37:21;;;;;;;2.25;1.35;;;;;;;;;;5102640;28;20040;-84
2023/03/10 19:39:47;;;;;;;2.80;1.23;;;;;;;;;;5121401;28;20024;-85
2023/03/10 19:42:14;;;;;;;4.32;1.42;;;;;;;;;;5131193;27;20032;-81
2023/03/10 19:44:43;;;;;;;1.80;1.23;;;;;;;;;;5111313;28;20008;-87
2023/03/10 19:47:09;;;;;;;3.08;1.70;;;;;;;;;;5111781;28;20019;-87
2023/03/10 19:49:35;;;;;;;4.95;1.45;;;;;;;;;;5124224;28;20035;-85
2023/03/10 19:52:01;;;;;;;4.22;1.85;;;;;;;;;;5108137;28;20024;-85
2023/03/10 19:54:27;;;;;;;2.50;1.45;;;;;;;;;;5108217;28;20114;-83
2023/03/10 19:56:53;;;;;;;3.50;1.60;;;;;;;;;;5110363;28;20028;-86
2023/03/10 19:59:19;;;;;;;6.13;2.50;;;;;;;;;;5117276;28;20163;-85
2023/03/10 20:01:47;;;;;;;4.55;1.70;;;;;;;;;;5114403;28;20511;-83
2023/03/10 20:04:14;;;;;;;2.63;1.48;;;;;;;;;;5117719;28;20043;-87
2023/03/10 20:06:40;;;;;;;3.40;1.52;;;;;;;;;;5116209;28;20058;-82
2023/03/10 20:09:09;;;;;;;4.85;2.35;;;;;;;;;;5117113;28;20027;-88
2023/03/10 20:11:36;;;;;;;4.50;2.03;;;5.60;99.90;;;;;;5113073;28;20031;-87
2023/03/10 20:14:02;;;;;;;3.47;1.92;;;;;;;;;;5119099;28;20087;-84
2023/03/10 20:16:28;;;;;;;4.15;2.30;;;;;;;;;;5124440;28;20012;-83
2023/03/10 20:18:54;;;;;;;2.58;1.45;;;;;;;;;;5118393;28;20146;-83
2023/03/10 20:21:20;;;;;;;4.22;2.10;;;;;;;;;;5118341;28;20053;-86
2023/03/10 20:23:47;;;;;;;3.42;1.60;;;;;;;;;;5116045;28;20012;-84
2023/03/10 20:26:14;;;;;;;2.95;1.70;;;5.40;99.90;;;;;;5118740;28;20024;-84
2023/03/10 20:28:42;;;;;;;2.30;1.60;;;5.50;99.90;;;;;;5112592;28;20038;-83
2023/03/10 20:31:08;;;;;;;2.20;1.20;;;;;;;;;;5112510;28;20024;-85
2023/03/10 20:33:35;;;;;;;4.63;2.05;;;5.40;99.90;;;;;;5115557;28;20047;-84
2023/03/10 20:36:01;;;;;;;4.88;2.53;;;;;;;;;;5100212;28;20263;-84
2023/03/10 20:38:27;;;;;;;4.10;1.90;;;;;;;;;;5101146;28;20035;-89
2023/03/10 20:40:53;;;;;;;4.13;1.98;;;;;;;;;;5105107;28;20032;-83
2023/03/10 20:43:19;;;;;;;3.15;1.75;;;;;;;;;;5101586;28;20032;-81
2023/03/10 20:45:45;;;;;;;2.95;1.80;;;;;;;;;;5107594;28;20036;-85
2023/03/10 20:48:11;;;;;;;2.47;1.50;;;;;;;;;;5104234;28;20039;-85
2023/03/10 20:50:38;;;;;;;4.07;1.58;;;;;;;;;;5091460;28;20067;-82
2023/03/10 20:53:04;;;;;;;4.68;1.60;;;;;;;;;;5096400;28;20032;-83
2023/03/10 20:55:30;;;;;;;2.85;1.70;;;5.40;99.90;;;;;;5101728;28;20029;-81
2023/03/10 20:57:59;;;;;;;3.80;1.70;;;5.40;99.90;;;;;;5093499;28;20024;-87
2023/03/10 21:00:27;;;;;;;2.38;1.50;;;5.30;99.90;;;;;;5101313;28;20034;-84
2023/03/10 21:02:55;;;;;;;2.35;1.30;;;5.20;99.90;;;;;;5100558;28;20036;-82
2023/03/10 21:05:23;;;;;;;3.28;1.92;;;5.30;99.90;;;;;;5091021;28;20051;-82
2023/03/10 21:07:50;;;;;;;2.30;1.25;;;;;;;;;;5098725;28;20400;-85
2023/03/10 21:10:16;;;;;;;3.75;1.88;;;;;;;;;;5095409;28;20035;-83
2023/03/10 21:12:43;;;;;;;5.45;2.00;;;5.00;99.90;;;;;;5093698;28;20036;-81
2023/03/10 21:15:13;;;;;;;6.72;2.00;;;5.00;99.90;;;;;;5094188;28;20021;-82
2023/03/10 21:17:39;;;;;;;4.22;1.73;;;;;;;;;;5100603;28;20032;-83
2023/03/10 21:20:09;;;;;;;4.28;1.60;;;5.00;99.90;;;;;;5107958;28;20028;-83
2023/03/10 21:22:36;;;;;;;5.68;1.73;;;5.10;99.90;;;;;;5093793;28;20136;-87
2023/03/10 21:25:05;;;;;;;3.05;1.50;;;5.10;99.90;;;;;;5095967;28;20028;-82
2023/03/10 21:27:32;;;;;;;3.80;1.35;;;;;;;;;;5098906;28;20038;-84
2023/03/10 21:29:59;;;;;;;4.32;1.83;;;;;;;;;;5109109;28;20043;-84
2023/03/10 21:32:25;;;;;;;3.03;1.48;;;;;;;;;;5109787;28;20345;-82
2023/03/10 21:34:51;;;;;;;5.13;2.17;;;;;;;;;;5109183;28;20036;-86
2023/03/10 21:37:17;;;;;;;6.30;2.53;;;;;;;;;;5091881;28;20033;-85
2023/03/10 21:39:43;;;;;;;3.00;1.55;;;;;;;;;;5102704;28;20029;-86
2023/03/10 21:42:13;;;;;;;4.30;1.90;;;5.00;99.90;;;;;;5108224;28;20123;-84
2023/03/10 21:44:41;;;;;;;4.20;1.70;;;5.00;99.90;;;;;;5106900;28;20035;-83
2023/03/10 21:47:07;;;;;;;4.55;1.38;;;;;;;;;;5098900;28;20017;-82
2023/03/10 21:49:33;;;;;;;5.43;2.17;;;;;;;;;;5100984;28;20040;-84
2023/03/10 21:52:00;;;;;;;4.45;2.13;;;;;;;;;;5092121;28;20020;-88
2023/03/10 21:54:26;;;;;;;5.38;1.80;;;;;;;;;;5095574;28;21256;-85
2023/03/10 21:56:53;;;;;;;4.72;1.67;;;;;;;;;;5089406;28;20028;-83
2023/03/10 21:59:19;;;;;;;5.88;2.30;;;;;;;;;;5099513;28;20024;-87
2023/03/10 22:01:45;;;;;;;4.22;1.73;;;;;;;;;;5102848;28;20016;-85
2023/03/10 22:04:12;;;;;;;4.88;1.80;;;;;;;;;;5093778;28;20035;-83
2023/03/10 22:06:38;;;;;;;3.08;1.40;;;4.80;99.90;;;;;;5092473;28;20036;-84
2023/03/10 22:09:05;;;;;;;5.35;1.88;;;;;;;;;;5094441;28;20044;-84
2023/03/10 22:11:31;;;;;;;5.93;1.83;;;;;;;;;;5098406;28;20040;-83
2023/03/10 22:13:57;;;;;;;5.78;1.90;;;;;;;;;;5095740;28;20033;-82
2023/03/10 22:16:24;;;;;;;2.75;1.60;;;;;;;;;;5094760;28;20038;-85
2023/03/10 22:18:50;;;;;;;4.90;1.90;;;;;;;;;;5099756;28;20028;-84
2023/03/10 22:21:16;;;;;;;6.50;1.98;;;;;;;;;;5097118;28;20455;-89
2023/03/10 22:23:42;;;;;;;6.03;2.30;;;;;;;;;;5099568;28;20028;-85
2023/03/10 22:26:09;;;;;;;5.22;1.90;;;4.60;99.90;;;;;;5101011;28;20052;-85
2023/03/10 22:28:35;;;;;;;3.83;1.58;;;;;;;;;;5107311;28;20068;-85
2023/03/10 22:31:05;;;;;;;5.10;2.10;;;4.60;99.90;;;;;;5094712;28;20033;-87
2023/03/10 22:33:32;;;;;;;5.97;1.50;;;;;;;;;;5109605;28;20031;-88
2023/03/10 22:36:05;;;;;;;7.45;2.10;;;4.40;99.90;;;;;;5100709;28;20024;-89
2023/03/10 22:38:31;;;;;;;3.35;1.30;;;;;;;;;;5105165;28;20016;-87
2023/03/10 22:40:58;;;;;;;3.70;1.75;;;;;;;;;;5090259;28;20028;-89
2023/03/10 22:43:24;;;;;;;6.20;1.80;;;;;;;;;;5092323;28;20060;-83
2023/03/10 22:45:50;;;;;;;3.13;1.67;;;;;;;;;;5096957;28;20021;-83
2023/03/10 22:48:16;;;;;;;4.20;1.65;;;;;;;;;;5101858;28;20510;-83
2023/03/10 22:50:45;;;;;;;8.45;3.97;;;3.80;99.90;;;;;;5091968;28;20030;-82
2023/03/10 22:53:16;;;;;;;6.50;1.92;;;3.80;99.90;;;;;;5091292;28;20086;-84
2023/03/10 22:55:45;;;;;;;3.85;1.58;;;;;;;;;;5091755;28;20032;-83
2023/03/10 22:58:13;;;;;;;4.70;1.38;;;;;;;;;;5097266;28;20063;-87
2023/03/10 23:00:41;;;;;;;2.35;1.45;;;;;;;;;;5087938;28;20021;-84
2023/03/10 23:03:10;;;;;;;2.83;1.48;;;;;;;;;;5097859;28;20032;-83
2023/03/10 23:05:36;;;;;;;4.47;1.55;;;;;;;;;;5098156;28;20051;-81
2023/03/10 23:08:02;;;;;;;5.30;1.88;;;;;;;;;;5094311;28;20048;-84
2023/03/10 23:10:31;;;;;;;4.03;1.80;;;3.70;99.90;;;;;;5099275;28;20028;-84
2023/03/10 23:13:03;;;;;;;3.20;1.58;;;3.70;99.90;;;;;;5099605;28;20032;-88
2023/03/10 23:15:32;;;;;;;5.53;2.28;;;3.60;99.90;;;;;;5091029;28;20028;-83
2023/03/10 23:17:58;;;;;;;4.60;1.95;;;;;;;;;;5089360;28;20062;-84
2023/03/10 23:20:32;;;;;;;4.60;1.70;;;3.60;99.90;;;;;;5096137;28;20047;-84
2023/03/10 23:22:59;;;;;;;4.00;1.55;;;3.60;99.90;;;;;;5095375;28;20039;-84
2023/03/10 23:25:25;;;;;;;3.60;1.70;;;;;;;;;;5090398;28;20032;-88
2023/03/10 23:27:51;;;;;;;5.95;1.90;;;;;;;;;;5095380;28;20040;-85
2023/03/10 23:30:17;;;;;;;7.53;2.40;;;;;;;;;;5091011;28;20028;-85
2023/03/10 23:32:46;;;;;;;4.65;1.70;;;3.40;99.90;;;;;;5095187;28;20029;-86
2023/03/10 23:35:14;;;;;;;4.05;2.00;;;3.40;99.90;;;;;;5096510;28;20491;-86
2023/03/10 23:37:40;;;;;;;6.43;2.08;;;;;;;;;;5091981;28;20031;-84
2023/03/10 23:40:10;;;;;;;5.10;2.10;;;3.40;99.90;;;;;;5099509;28;20024;-82
2023/03/10 23:42:38;;;;;;;5.30;2.40;;;3.40;99.90;;;;;;5091103;28;20029;-86
2023/03/10 23:45:06;;;;;;;4.00;1.80;;;3.40;99.90;;;;;;5094794;28;20025;-83
2023/03/10 23:47:33;;;;;;;3.47;1.80;;;3.40;99.90;;;;;;5114922;28;20029;-84
2023/03/10 23:49:59;;;;;;;3.75;1.73;;;;;;;;;;5097859;28;20891;-86
2023/03/10 23:52:25;;;;;;;5.50;1.95;;;;;;;;;;5102413;28;20040;-84
2023/03/10 23:54:52;;;;;;;4.05;1.40;;;;;;;;;;5094378;28;20071;-87
2023/03/10 23:57:18;;;;;;;3.03;1.25;;;;;;;;;;5101379;28;20048;-85
2023/03/10 23:59:44;;;;;;;8.00;2.47;;;;;;;;;;5098515;28;20074;-82
